createdAt,value
2018-01-27T00:01:37.783Z,6.30
2018-01-27T00:04:06.740Z,6.30
2018-01-27T00:06:35.359Z,6.30
2018-01-27T00:09:02.091Z,6.30
2018-01-27T00:11:28.598Z,6.30
2018-01-27T00:13:55.158Z,6.30
2018-01-27T00:16:21.668Z,6.30
2018-01-27T00:18:48.199Z,6.20
2018-01-27T00:21:14.674Z,6.20
2018-01-27T00:23:42.093Z,6.10
2018-01-27T00:26:09.120Z,6.10
2018-01-27T00:28:35.681Z,6.00
2018-01-27T00:31:02.737Z,6.00
2018-01-27T00:33:29.191Z,6.00
2018-01-27T00:35:55.943Z,5.90
2018-01-27T00:38:22.464Z,5.90
2018-01-27T00:40:49.007Z,5.90
2018-01-27T00:43:15.484Z,5.90
2018-01-27T00:45:42.758Z,5.80
2018-01-27T00:48:09.284Z,5.80
2018-01-27T00:50:35.763Z,5.90
2018-01-27T00:53:02.293Z,5.90
2018-01-27T00:55:28.773Z,5.80
2018-01-27T00:57:56.045Z,5.80
2018-01-27T01:00:22.726Z,5.80
2018-01-27T01:02:49.242Z,5.80
2018-01-27T01:05:15.790Z,5.90
2018-01-27T01:07:42.250Z,5.90
2018-01-27T01:10:09.040Z,6.00
2018-01-27T01:12:35.515Z,6.00
2018-01-27T01:15:01.976Z,6.10
2018-01-27T01:17:29.259Z,6.00
2018-01-27T01:19:55.716Z,6.00
2018-01-27T01:22:22.191Z,6.00
2018-01-27T01:24:49.550Z,6.00
2018-01-27T01:27:16.743Z,5.90
2018-01-27T01:29:43.286Z,5.90
2018-01-27T01:32:09.775Z,5.90
2018-01-27T01:34:36.258Z,5.90
2018-01-27T01:37:02.779Z,5.90
2018-01-27T01:39:29.279Z,5.80
2018-01-27T01:41:56.484Z,5.90
2018-01-27T01:44:26.964Z,5.90
2018-01-27T01:46:53.433Z,5.90
2018-01-27T01:49:23.781Z,5.90
2018-01-27T01:51:50.293Z,6.00
2018-01-27T01:54:16.916Z,5.90
2018-01-27T01:56:43.448Z,5.90
2018-01-27T01:59:09.904Z,5.90
2018-01-27T02:01:36.412Z,5.90
2018-01-27T02:04:02.928Z,6.00
2018-01-27T02:06:30.195Z,6.00
2018-01-27T02:08:56.641Z,6.00
2018-01-27T02:11:23.139Z,6.00
2018-01-27T02:13:50.355Z,6.00
2018-01-27T02:16:16.857Z,6.00
2018-01-27T02:18:43.305Z,6.10
2018-01-27T02:21:09.828Z,6.00
2018-01-27T02:23:36.317Z,6.10
2018-01-27T02:26:03.060Z,6.00
2018-01-27T02:28:29.543Z,6.00
2018-01-27T02:30:56.059Z,6.00
2018-01-27T02:33:22.503Z,5.90
2018-01-27T02:35:49.017Z,5.90
2018-01-27T02:38:15.546Z,5.80
2018-01-27T02:40:42.624Z,5.80
2018-01-27T02:43:09.118Z,5.80
2018-01-27T02:45:36.355Z,5.80
2018-01-27T02:48:02.897Z,5.80
2018-01-27T02:50:29.339Z,5.80
2018-01-27T02:52:56.575Z,5.80
2018-01-27T02:55:23.022Z,5.80
2018-01-27T02:57:50.261Z,5.70
2018-01-27T03:00:16.750Z,5.70
2018-01-27T03:02:43.248Z,5.70
2018-01-27T03:05:10.501Z,5.70
2018-01-27T03:07:37.841Z,5.70
2018-01-27T03:10:04.372Z,5.70
2018-01-27T03:12:31.597Z,5.70
2018-01-27T03:14:58.023Z,5.70
2018-01-27T03:17:24.551Z,5.70
2018-01-27T03:19:51.086Z,5.70
2018-01-27T03:22:17.556Z,5.60
2018-01-27T03:24:44.176Z,5.70
2018-01-27T03:27:10.701Z,5.70
2018-01-27T03:29:37.214Z,5.70
2018-01-27T03:32:08.617Z,5.80
2018-01-27T03:34:35.497Z,5.70
2018-01-27T03:37:02.312Z,5.70
2018-01-27T03:39:29.918Z,5.70
2018-01-27T03:41:56.598Z,5.70
2018-01-27T03:44:23.930Z,5.60
2018-01-27T03:46:50.438Z,5.60
2018-01-27T03:49:16.983Z,5.60
2018-01-27T03:51:51.055Z,5.60
2018-01-27T03:54:18.691Z,5.70
2018-01-27T03:56:45.248Z,5.60
2018-01-27T03:59:12.448Z,5.60
2018-01-27T04:01:38.878Z,5.60
2018-01-27T04:04:05.388Z,5.70
2018-01-27T04:06:31.857Z,5.60
2018-01-27T04:08:58.383Z,5.50
2018-01-27T04:11:25.058Z,5.60
2018-01-27T04:13:54.227Z,5.60
2018-01-27T04:16:20.787Z,5.60
2018-01-27T04:18:47.287Z,5.60
2018-01-27T04:21:13.751Z,5.60
2018-01-27T04:23:40.203Z,5.60
2018-01-27T04:26:07.501Z,5.60
2018-01-27T04:28:34.045Z,5.60
2018-01-27T04:31:12.324Z,5.60
2018-01-27T04:33:39.939Z,5.50
2018-01-27T04:36:07.971Z,5.50
2018-01-27T04:38:34.468Z,5.50
2018-01-27T04:41:01.782Z,5.60
2018-01-27T04:43:28.258Z,5.60
2018-01-27T04:45:55.471Z,5.50
2018-01-27T04:48:21.962Z,5.50
2018-01-27T04:50:48.423Z,5.50
2018-01-27T04:53:14.864Z,5.50
2018-01-27T04:55:41.360Z,5.50
2018-01-27T04:58:08.605Z,5.60
2018-01-27T05:00:35.847Z,5.60
2018-01-27T05:03:03.022Z,5.60
2018-01-27T05:05:29.514Z,5.50
2018-01-27T05:07:56.043Z,5.50
2018-01-27T05:10:22.535Z,5.50
2018-01-27T05:12:49.076Z,5.50
2018-01-27T05:15:15.592Z,5.40
2018-01-27T05:17:42.104Z,5.20
2018-01-27T05:20:09.341Z,5.30
2018-01-27T05:22:35.820Z,5.30
2018-01-27T05:25:02.440Z,5.30
2018-01-27T05:27:29.070Z,5.30
2018-01-27T05:29:55.602Z,5.30
2018-01-27T05:32:22.846Z,5.30
2018-01-27T05:34:49.444Z,5.30
2018-01-27T05:37:15.943Z,5.40
2018-01-27T05:39:42.396Z,5.40
2018-01-27T05:42:08.888Z,5.40
2018-01-27T05:44:36.139Z,5.30
2018-01-27T05:47:02.781Z,5.30
2018-01-27T05:49:30.054Z,5.50
2018-01-27T05:51:56.582Z,5.40
2018-01-27T05:54:23.934Z,5.30
2018-01-27T05:56:51.137Z,5.30
2018-01-27T05:59:18.466Z,5.20
2018-01-27T06:01:45.012Z,5.20
2018-01-27T06:04:11.890Z,5.30
2018-01-27T06:06:38.488Z,5.30
2018-01-27T06:09:04.959Z,5.20
2018-01-27T06:11:31.491Z,5.20
2018-01-27T06:13:57.976Z,5.20
2018-01-27T06:16:24.475Z,5.20
2018-01-27T06:18:50.914Z,5.30
2018-01-27T06:21:18.143Z,5.30
2018-01-27T06:23:45.355Z,5.30
2018-01-27T06:26:11.863Z,5.30
2018-01-27T06:28:39.116Z,5.30
2018-01-27T06:31:06.351Z,5.30
2018-01-27T06:33:33.587Z,5.30
2018-01-27T06:36:00.024Z,5.30
2018-01-27T06:38:26.571Z,5.30
2018-01-27T06:40:53.047Z,5.20
2018-01-27T06:43:19.535Z,5.20
2018-01-27T06:45:45.996Z,5.30
2018-01-27T06:48:12.504Z,5.30
2018-01-27T06:50:39.039Z,5.30
2018-01-27T06:53:05.508Z,5.30
2018-01-27T06:55:31.996Z,5.30
2018-01-27T06:57:58.513Z,5.30
2018-01-27T07:00:25.049Z,5.30
2018-01-27T07:02:51.539Z,5.20
2018-01-27T07:05:18.002Z,5.20
2018-01-27T07:07:44.471Z,5.20
2018-01-27T07:10:10.964Z,5.20
2018-01-27T07:12:37.486Z,5.40
2018-01-27T07:15:04.290Z,5.40
2018-01-27T07:17:31.553Z,5.40
2018-01-27T07:19:58.773Z,5.50
2018-01-27T07:22:25.404Z,5.40
2018-01-27T07:24:52.891Z,5.40
2018-01-27T07:27:19.549Z,5.40
2018-01-27T07:29:46.821Z,5.30
2018-01-27T07:32:13.618Z,5.30
2018-01-27T07:34:40.073Z,5.30
2018-01-27T07:37:07.325Z,5.40
2018-01-27T07:39:34.592Z,5.40
2018-01-27T07:42:01.092Z,5.40
2018-01-27T07:44:27.577Z,5.40
2018-01-27T07:46:54.140Z,5.40
2018-01-27T07:49:20.621Z,5.40
2018-01-27T07:51:47.245Z,5.50
2018-01-27T07:54:14.600Z,5.40
2018-01-27T07:56:41.854Z,5.40
2018-01-27T07:59:09.294Z,5.50
2018-01-27T08:01:35.755Z,5.40
2018-01-27T08:04:02.527Z,5.50
2018-01-27T08:06:28.988Z,5.50
2018-01-27T08:08:55.467Z,5.50
2018-01-27T08:11:22.000Z,5.60
2018-01-27T08:13:48.468Z,5.70
2018-01-27T08:16:14.924Z,5.70
2018-01-27T08:18:41.451Z,5.80
2018-01-27T08:21:08.154Z,5.80
2018-01-27T08:23:34.660Z,5.90
2018-01-27T08:26:01.952Z,5.80
2018-01-27T08:28:28.449Z,5.70
2018-01-27T08:30:55.640Z,5.80
2018-01-27T08:33:22.322Z,5.80
2018-01-27T08:35:48.839Z,5.80
2018-01-27T08:38:15.403Z,5.80
2018-01-27T08:40:44.749Z,6.00
2018-01-27T08:43:11.377Z,6.10
2018-01-27T08:45:37.824Z,6.10
2018-01-27T08:48:04.375Z,6.20
2018-01-27T08:50:30.858Z,6.30
2018-01-27T08:52:57.380Z,6.50
2018-01-27T08:55:24.708Z,6.10
2018-01-27T08:57:51.242Z,6.20
2018-01-27T09:00:18.649Z,6.10
2018-01-27T09:02:45.174Z,6.00
2018-01-27T09:05:11.636Z,6.20
2018-01-27T09:07:38.541Z,6.30
2018-01-27T09:10:05.928Z,6.70
2018-01-27T09:12:32.411Z,6.60
2018-01-27T09:14:58.964Z,6.50
2018-01-27T09:17:26.184Z,6.40
2018-01-27T09:19:52.804Z,6.30
2018-01-27T09:22:19.294Z,6.60
2018-01-27T09:24:46.595Z,7.30
2018-01-27T09:27:13.863Z,7.70
2018-01-27T09:29:40.428Z,7.70
2018-01-27T09:32:07.658Z,8.00
2018-01-27T09:34:34.208Z,8.00
2018-01-27T09:37:01.512Z,8.50
2018-01-27T09:39:28.011Z,8.50
2018-01-27T09:41:54.574Z,9.00
2018-01-27T09:44:21.123Z,9.40
2018-01-27T09:46:47.711Z,9.70
2018-01-27T09:49:14.936Z,10.70
2018-01-27T09:51:41.505Z,10.60
2018-01-27T09:54:08.116Z,10.70
2018-01-27T09:56:34.679Z,10.80
2018-01-27T09:59:01.218Z,11.00
2018-01-27T10:01:28.441Z,10.30
2018-01-27T10:03:55.147Z,10.30
2018-01-27T10:06:21.656Z,10.30
2018-01-27T10:08:48.952Z,10.10
2018-01-27T10:11:15.449Z,10.20
2018-01-27T10:13:41.952Z,10.50
2018-01-27T10:16:09.179Z,10.10
2018-01-27T10:18:35.748Z,10.00
2018-01-27T10:21:03.052Z,10.10
2018-01-27T10:23:29.543Z,10.10
2018-01-27T10:25:56.063Z,10.10
2018-01-27T10:28:23.347Z,10.20
2018-01-27T10:30:49.829Z,10.10
2018-01-27T10:33:16.358Z,10.20
2018-01-27T10:35:42.895Z,10.10
2018-01-27T10:38:09.444Z,10.10
2018-01-27T10:40:36.060Z,9.60
2018-01-27T10:43:02.545Z,9.30
2018-01-27T10:45:29.116Z,9.20
2018-01-27T10:48:02.504Z,9.00
2018-01-27T10:50:29.105Z,8.70
2018-01-27T10:52:55.715Z,8.70
2018-01-27T10:55:22.575Z,8.70
2018-01-27T10:57:49.162Z,8.80
2018-01-27T11:00:15.731Z,8.70
2018-01-27T11:02:42.231Z,8.70
2018-01-27T11:05:08.782Z,8.60
2018-01-27T11:07:35.364Z,8.50
2018-01-27T11:10:02.065Z,8.40
2018-01-27T11:12:28.635Z,8.30
2018-01-27T11:14:55.197Z,8.00
2018-01-27T11:17:21.737Z,8.00
2018-01-27T11:19:48.591Z,7.80
2018-01-27T11:22:18.062Z,7.90
2018-01-27T11:24:44.650Z,8.00
2018-01-27T11:27:11.189Z,8.20
2018-01-27T11:29:37.810Z,8.20
2018-01-27T11:32:04.452Z,8.20
2018-01-27T11:34:30.940Z,8.20
2018-01-27T11:36:57.501Z,8.20
2018-01-27T11:39:24.682Z,8.00
2018-01-27T11:41:51.579Z,8.00
2018-01-27T11:44:18.050Z,8.00
2018-01-27T11:46:44.671Z,8.00
2018-01-27T11:49:11.236Z,8.00
2018-01-27T11:51:38.304Z,8.30
2018-01-27T11:54:05.553Z,8.30
2018-01-27T11:56:32.248Z,8.30
2018-01-27T11:58:58.781Z,8.10
2018-01-27T12:01:26.096Z,7.90
2018-01-27T12:03:56.242Z,8.00
2018-01-27T12:06:23.063Z,8.40
2018-01-27T12:08:50.356Z,8.80
2018-01-27T12:11:17.032Z,8.80
2018-01-27T12:13:44.126Z,9.20
2018-01-27T12:16:10.864Z,9.80
2018-01-27T12:18:37.920Z,10.60
2018-01-27T12:21:04.627Z,10.70
2018-01-27T12:23:32.005Z,11.10
2018-01-27T12:25:58.915Z,11.10
2018-01-27T12:28:26.782Z,10.30
2018-01-27T12:30:53.531Z,10.30
2018-01-27T12:33:22.207Z,10.60
2018-01-27T12:35:49.798Z,10.50
2018-01-27T12:38:17.965Z,10.40
2018-01-27T12:40:46.220Z,10.60
2018-01-27T12:43:13.505Z,10.70
2018-01-27T12:45:40.103Z,10.70
2018-01-27T12:48:07.536Z,10.30
2018-01-27T12:50:36.259Z,10.30
2018-01-27T12:53:03.433Z,10.00
2018-01-27T12:55:29.998Z,9.80
2018-01-27T12:57:56.587Z,9.90
2018-01-27T13:00:24.116Z,10.10
2018-01-27T13:02:50.625Z,10.10
2018-01-27T13:05:17.263Z,9.70
2018-01-27T13:07:43.950Z,9.80
2018-01-27T13:10:11.382Z,10.20
2018-01-27T13:12:38.089Z,10.40
2018-01-27T13:15:04.772Z,10.30
2018-01-27T13:17:33.225Z,10.30
2018-01-27T13:19:59.878Z,10.20
2018-01-27T13:22:26.409Z,10.00
2018-01-27T13:24:53.141Z,9.90
2018-01-27T13:27:19.682Z,9.60
2018-01-27T13:29:46.533Z,9.70
2018-01-27T13:32:13.123Z,9.60
2018-01-27T13:34:40.230Z,9.60
2018-01-27T13:37:06.745Z,9.60
2018-01-27T13:39:33.427Z,9.50
2018-01-27T13:41:59.942Z,9.60
2018-01-27T13:44:29.408Z,9.70
2018-01-27T13:46:56.068Z,9.70
2018-01-27T13:49:22.884Z,9.90
2018-01-27T13:51:50.704Z,10.10
2018-01-27T13:54:17.349Z,11.30
2018-01-27T13:56:43.953Z,12.90
2018-01-27T13:59:10.490Z,14.60
2018-01-27T14:01:37.228Z,16.20
2018-01-27T14:04:04.658Z,15.50
2018-01-27T14:06:31.260Z,15.40
2018-01-27T14:08:57.913Z,16.30
2018-01-27T14:11:24.535Z,16.80
2018-01-27T14:13:51.363Z,17.40
2018-01-27T14:16:19.421Z,16.40
2018-01-27T14:18:46.777Z,15.90
2018-01-27T14:21:14.306Z,16.00
2018-01-27T14:23:40.775Z,15.90
2018-01-27T14:26:07.642Z,15.40
2018-01-27T14:28:34.793Z,15.30
2018-01-27T14:31:02.142Z,14.50
2018-01-27T14:33:28.927Z,13.80
2018-01-27T14:35:55.595Z,12.80
2018-01-27T14:38:24.563Z,11.30
2018-01-27T14:40:51.278Z,11.30
2018-01-27T14:43:17.930Z,10.70
2018-01-27T14:45:44.943Z,10.60
2018-01-27T14:48:11.482Z,10.30
2018-01-27T14:50:48.714Z,10.00
2018-01-27T14:53:15.521Z,9.80
2018-01-27T14:55:42.159Z,9.60
2018-01-27T14:58:08.642Z,9.50
2018-01-27T15:00:35.899Z,9.30
2018-01-27T15:03:03.268Z,9.20
2018-01-27T15:05:30.155Z,9.20
2018-01-27T15:07:56.735Z,9.10
2018-01-27T15:10:24.031Z,8.90
2018-01-27T15:12:50.732Z,8.90
2018-01-27T15:15:17.265Z,8.90
2018-01-27T15:17:44.823Z,8.70
2018-01-27T15:20:11.481Z,8.70
2018-01-27T15:22:38.278Z,8.60
2018-01-27T15:25:05.209Z,8.60
2018-01-27T15:27:32.871Z,8.50
2018-01-27T15:29:59.524Z,8.50
2018-01-27T15:32:26.068Z,8.40
2018-01-27T15:34:53.385Z,8.40
2018-01-27T15:37:19.889Z,8.40
2018-01-27T15:39:46.400Z,8.40
2018-01-27T15:42:13.688Z,8.50
2018-01-27T15:44:57.510Z,8.50
2018-01-27T15:47:24.060Z,8.40
2018-01-27T15:49:50.528Z,8.30
2018-01-27T15:52:17.087Z,8.20
2018-01-27T15:54:44.626Z,8.20
2018-01-27T15:57:11.298Z,8.20
2018-01-27T15:59:38.530Z,8.20
2018-01-27T16:02:06.029Z,8.20
2018-01-27T16:04:32.603Z,8.10
2018-01-27T16:06:59.206Z,8.20
2018-01-27T16:09:25.776Z,8.20
2018-01-27T16:11:52.943Z,8.10
2018-01-27T16:14:19.644Z,8.00
2018-01-27T16:16:46.157Z,7.90
2018-01-27T16:19:12.668Z,7.80
2018-01-27T16:21:39.214Z,7.60
2018-01-27T16:24:06.096Z,7.40
2018-01-27T16:26:32.728Z,7.40
2018-01-27T16:28:59.216Z,7.20
2018-01-27T16:31:26.650Z,6.90
2018-01-27T16:33:54.297Z,6.80
2018-01-27T16:36:20.887Z,6.80
2018-01-27T16:38:47.406Z,6.70
2018-01-27T16:41:14.597Z,6.50
2018-01-27T16:43:41.078Z,6.50
2018-01-27T16:46:07.672Z,6.20
2018-01-27T16:48:34.354Z,6.20
2018-01-27T16:51:00.850Z,6.10
2018-01-27T16:53:27.457Z,6.00
2018-01-27T16:55:54.591Z,5.70
2018-01-27T16:58:21.916Z,5.60
2018-01-27T17:00:48.571Z,5.60
2018-01-27T17:03:15.921Z,5.40
2018-01-27T17:05:42.884Z,5.40
2018-01-27T17:08:09.522Z,5.40
2018-01-27T17:10:37.379Z,5.30
2018-01-27T17:13:04.648Z,5.20
2018-01-27T17:15:32.260Z,5.10
2018-01-27T17:17:58.771Z,5.10
2018-01-27T17:20:25.289Z,5.00
2018-01-27T17:22:51.766Z,5.00
2018-01-27T17:25:18.335Z,5.00
2018-01-27T17:27:45.574Z,4.90
2018-01-27T17:30:12.084Z,4.90
2018-01-27T17:32:38.583Z,4.80
2018-01-27T17:35:14.967Z,4.80
2018-01-27T17:37:41.467Z,4.80
2018-01-27T17:40:08.976Z,4.70
2018-01-27T17:42:36.274Z,4.60
2018-01-27T17:45:03.066Z,4.60
2018-01-27T17:47:29.612Z,4.50
2018-01-27T17:49:56.242Z,4.40
2018-01-27T17:52:23.483Z,4.30
2018-01-27T17:54:49.974Z,4.30
2018-01-27T17:57:16.665Z,4.20
2018-01-27T17:59:43.317Z,4.20
2018-01-27T18:02:10.246Z,4.00
2018-01-27T18:04:36.928Z,4.00
2018-01-27T18:07:04.545Z,4.00
2018-01-27T18:09:31.097Z,4.00
2018-01-27T18:11:57.796Z,3.90
2018-01-27T18:14:24.395Z,3.90
2018-01-27T18:16:51.066Z,3.70
2018-01-27T18:19:17.597Z,3.80
2018-01-27T18:21:44.163Z,3.80
2018-01-27T18:24:10.760Z,3.70
2018-01-27T18:26:38.056Z,3.50
2018-01-27T18:29:04.536Z,3.50
2018-01-27T18:31:31.790Z,3.40
2018-01-27T18:33:58.364Z,3.40
2018-01-27T18:36:24.845Z,3.30
2018-01-27T18:38:52.151Z,3.20
2018-01-27T18:41:18.689Z,3.10
2018-01-27T18:43:45.212Z,3.20
2018-01-27T18:46:11.664Z,3.10
2018-01-27T18:48:38.320Z,3.20
2018-01-27T18:51:05.584Z,3.30
2018-01-27T18:53:32.151Z,3.20
2018-01-27T18:55:59.379Z,3.30
2018-01-27T18:58:26.222Z,3.30
2018-01-27T19:00:53.481Z,3.30
2018-01-27T19:03:20.666Z,3.30
2018-01-27T19:05:47.244Z,3.30
2018-01-27T19:08:13.768Z,3.40
2018-01-27T19:10:40.338Z,3.40
2018-01-27T19:13:07.906Z,3.50
2018-01-27T19:15:35.081Z,3.60
2018-01-27T19:18:02.579Z,3.60
2018-01-27T19:20:29.103Z,3.70
2018-01-27T19:22:55.720Z,3.80
2018-01-27T19:25:22.181Z,3.80
2018-01-27T19:27:48.891Z,3.80
2018-01-27T19:30:15.426Z,3.90
2018-01-27T19:32:42.025Z,4.00
2018-01-27T19:35:09.322Z,4.00
2018-01-27T19:37:36.810Z,4.00
2018-01-27T19:40:03.584Z,4.10
2018-01-27T19:42:36.920Z,4.10
2018-01-27T19:45:03.419Z,4.10
2018-01-27T19:47:30.668Z,4.00
2018-01-27T19:49:57.934Z,4.00
2018-01-27T19:52:24.710Z,3.90
2018-01-27T19:54:52.113Z,4.00
2018-01-27T19:57:21.101Z,4.00
2018-01-27T19:59:48.389Z,3.90
2018-01-27T20:02:14.950Z,3.90
2018-01-27T20:04:41.899Z,4.00
2018-01-27T20:07:08.882Z,4.10
2018-01-27T20:09:36.128Z,4.20
2018-01-27T20:12:04.652Z,4.40
2018-01-27T20:14:32.411Z,4.50
2018-01-27T20:17:00.365Z,4.50
2018-01-27T20:19:27.101Z,4.60
2018-01-27T20:21:54.446Z,4.60
2018-01-27T20:24:22.697Z,4.60
2018-01-27T20:26:50.241Z,4.60
2018-01-27T20:29:18.182Z,4.40
2018-01-27T20:31:45.039Z,4.40
2018-01-27T20:34:11.653Z,4.20
2018-01-27T20:36:38.151Z,4.10
2018-01-27T20:39:05.780Z,4.10
2018-01-27T20:41:32.273Z,4.10
2018-01-27T20:44:00.087Z,4.20
2018-01-27T20:46:27.889Z,4.30
2018-01-27T20:48:55.349Z,4.40
2018-01-27T20:51:22.363Z,4.40
2018-01-27T20:53:49.649Z,4.50
2018-01-27T20:56:17.390Z,4.60
2018-01-27T20:58:44.450Z,4.60
2018-01-27T21:01:11.960Z,4.70
2018-01-27T21:03:38.455Z,4.50
2018-01-27T21:06:05.148Z,4.70
2018-01-27T21:08:37.392Z,4.80
2018-01-27T21:11:04.526Z,4.80
2018-01-27T21:13:31.679Z,4.80
2018-01-27T21:15:58.350Z,4.80
2018-01-27T21:18:26.596Z,4.50
2018-01-27T21:20:54.656Z,4.50
2018-01-27T21:23:21.505Z,4.50
2018-01-27T21:25:48.058Z,4.50
2018-01-27T21:28:14.647Z,4.50
2018-01-27T21:30:42.016Z,4.70
2018-01-27T21:33:08.613Z,4.60
2018-01-27T21:35:35.247Z,4.70
2018-01-27T21:38:01.800Z,4.80
2018-01-27T21:40:30.705Z,4.90
2018-01-27T21:42:57.237Z,4.90
2018-01-27T21:45:25.757Z,5.10
2018-01-27T21:47:54.006Z,5.10
2018-01-27T21:50:23.056Z,5.10
2018-01-27T21:52:49.971Z,5.10
2018-01-27T21:55:17.093Z,5.10
2018-01-27T21:57:44.618Z,5.00
2018-01-27T22:00:11.260Z,5.00
2018-01-27T22:02:37.798Z,5.10
2018-01-27T22:05:04.973Z,5.10
2018-01-27T22:07:31.606Z,5.20
2018-01-27T22:09:59.075Z,5.20
2018-01-27T22:12:25.588Z,5.20
2018-01-27T22:14:52.163Z,5.20
2018-01-27T22:17:18.661Z,5.20
2018-01-27T22:19:45.220Z,5.20
2018-01-27T22:22:11.781Z,5.20
2018-01-27T22:24:38.380Z,5.20
2018-01-27T22:27:05.655Z,5.20
2018-01-27T22:29:32.501Z,5.20
2018-01-27T22:31:59.248Z,5.30
2018-01-27T22:34:25.806Z,5.40
2018-01-27T22:36:52.432Z,5.60
2018-01-27T22:39:19.078Z,5.60
2018-01-27T22:41:45.645Z,5.70
2018-01-27T22:44:12.953Z,5.80
2018-01-27T22:46:40.764Z,5.70
2018-01-27T22:49:07.497Z,5.90
2018-01-27T22:51:34.006Z,5.90
2018-01-27T22:54:00.579Z,5.90
2018-01-27T22:56:27.899Z,6.00
2018-01-27T22:58:54.421Z,6.00
2018-01-27T23:01:20.890Z,6.00
2018-01-27T23:03:47.413Z,5.80
2018-01-27T23:06:14.181Z,5.60
2018-01-27T23:08:40.695Z,5.50
2018-01-27T23:11:08.722Z,5.40
2018-01-27T23:13:35.186Z,5.40
2018-01-27T23:16:01.691Z,5.40
2018-01-27T23:18:28.142Z,5.40
2018-01-27T23:20:56.695Z,5.40
2018-01-27T23:23:23.117Z,5.50
2018-01-27T23:25:49.705Z,5.50
2018-01-27T23:28:16.208Z,5.50
2018-01-27T23:30:42.753Z,5.50
2018-01-27T23:33:09.303Z,5.50
2018-01-27T23:35:35.894Z,5.40
2018-01-27T23:38:02.444Z,5.40
2018-01-27T23:40:28.934Z,5.40
2018-01-27T23:42:55.525Z,5.40
2018-01-27T23:45:22.043Z,5.40
2018-01-27T23:47:48.616Z,5.40
2018-01-27T23:50:15.166Z,5.40
2018-01-27T23:52:41.687Z,5.40
2018-01-27T23:55:08.177Z,5.30
2018-01-27T23:57:35.510Z,5.30
